Time;durP1;ratioP1;P1;durP2;ratioP2;P2;SDS_P1;SDS_P2;PMS_P1;PMS_P2;Temp;Humidity;BMP_temperature;BMP_pressure;BME280_temperature;BME280_humidity;BME280_pressure;Samples;Min_cycle;Max_cycle;Signal;HPM_P1;HPM_P2
2024/05/04 00:01:57;;;;;;;6.25;5.22;;;8.80;99.90;;;;;;5370997;26;20077;-76
2024/05/04 00:04:25;;;;;;;7.38;5.75;;;8.80;99.90;;;;;;5382726;26;20004;-77
2024/05/04 00:06:52;;;;;;;8.10;5.32;;;8.80;99.90;;;;;;5352108;26;20366;-76
2024/05/04 00:09:19;;;;;;;7.72;4.85;;;8.70;99.90;;;;;;5381305;26;19997;-76
2024/05/04 00:11:46;;;;;;;7.78;5.13;;;8.70;99.90;;;;;;5379993;26;20007;-76
2024/05/04 00:14:13;;;;;;;6.40;5.03;;;8.70;99.90;;;;;;5380627;26;20028;-76
2024/05/04 00:16:40;;;;;;;11.85;6.05;;;8.60;99.90;;;;;;5382312;26;20012;-76
2024/05/04 00:19:07;;;;;;;7.95;5.00;;;8.60;99.90;;;;;;5322802;26;20032;-76
2024/05/04 00:21:34;;;;;;;8.50;6.25;;;8.50;99.90;;;;;;5382450;26;20028;-76
2024/05/04 00:24:02;;;;;;;6.57;4.10;;;8.50;99.90;;;;;;5382107;26;20000;-77
2024/05/04 00:26:29;;;;;;;7.85;5.18;;;8.50;99.90;;;;;;5382298;26;20000;-76
2024/05/04 00:28:56;;;;;;;5.45;4.72;;;8.50;99.90;;;;;;5380394;26;20001;-77
2024/05/04 00:31:23;;;;;;;6.82;6.13;;;8.50;99.90;;;;;;5382059;26;20018;-76
2024/05/04 00:33:50;;;;;;;7.88;6.00;;;8.50;99.90;;;;;;5380438;26;20004;-76
2024/05/04 00:36:17;;;;;;;6.13;4.82;;;8.40;99.90;;;;;;5351261;26;20015;-76
2024/05/04 00:38:44;;;;;;;11.05;5.88;;;8.40;99.90;;;;;;5382606;26;19998;-76
2024/05/04 00:41:11;;;;;;;10.40;6.55;;;8.40;99.90;;;;;;5382287;26;20007;-76
2024/05/04 00:43:38;;;;;;;6.13;5.47;;;8.40;99.90;;;;;;5351355;26;19996;-76
2024/05/04 00:46:06;;;;;;;6.15;5.50;;;8.40;99.90;;;;;;5382154;26;20044;-76
2024/05/04 00:48:34;;;;;;;8.25;5.63;;;8.40;99.90;;;;;;5382148;26;20006;-76
2024/05/04 00:51:01;;;;;;;9.20;5.50;;;8.30;99.90;;;;;;5380407;26;20319;-76
2024/05/04 00:53:29;;;;;;;7.72;4.88;;;8.30;99.90;;;;;;5379939;26;19996;-76
2024/05/04 00:55:57;;;;;;;7.75;6.05;;;8.20;99.90;;;;;;5380289;26;20015;-77
2024/05/04 00:58:25;;;;;;;8.00;5.68;;;8.20;99.90;;;;;;5350926;26;20069;-77
2024/05/04 01:00:54;;;;;;;9.90;5.38;;;8.10;99.90;;;;;;5380351;26;20000;-77
2024/05/04 01:03:21;;;;;;;7.25;6.35;;;8.10;99.90;;;;;;5379654;26;20076;-77
2024/05/04 01:05:48;;;;;;;8.52;5.40;;;8.10;99.90;;;;;;5381959;26;20345;-77
2024/05/04 01:08:15;;;;;;;8.93;5.45;;;8.00;99.90;;;;;;5379850;26;20015;-76
2024/05/04 01:10:43;;;;;;;6.65;5.45;;;8.00;99.90;;;;;;5381597;26;20015;-76
2024/05/04 01:13:10;;;;;;;8.23;5.60;;;8.10;99.90;;;;;;5379752;26;20032;-76
2024/05/04 01:15:37;;;;;;;8.15;7.05;;;7.90;99.90;;;;;;5382062;26;20032;-76
2024/05/04 01:18:04;;;;;;;7.43;5.97;;;7.90;99.90;;;;;;5380341;26;19996;-76
2024/05/04 01:20:31;;;;;;;8.68;6.22;;;7.90;99.90;;;;;;5380031;26;20015;-76
2024/05/04 01:22:58;;;;;;;9.60;6.65;;;7.90;99.90;;;;;;5380213;26;19996;-76
2024/05/04 01:25:25;;;;;;;10.20;7.22;;;7.90;99.90;;;;;;5379625;26;20011;-76
2024/05/04 01:27:53;;;;;;;8.90;6.07;;;7.80;99.90;;;;;;5380109;26;20036;-76
2024/05/04 01:30:20;;;;;;;7.75;6.22;;;7.70;99.90;;;;;;5381238;26;19996;-76
2024/05/04 01:32:47;;;;;;;10.20;6.95;;;7.70;99.90;;;;;;5381143;26;20055;-76
2024/05/04 01:35:14;;;;;;;10.30;6.35;;;7.60;99.90;;;;;;5379412;26;20011;-76
2024/05/04 01:37:42;;;;;;;8.68;5.97;;;7.60;99.90;;;;;;5381345;26;20333;-76
2024/05/04 01:40:09;;;;;;;12.52;6.82;;;7.50;99.90;;;;;;5381110;26;20001;-76
2024/05/04 01:42:37;;;;;;;11.15;6.40;;;7.50;99.90;;;;;;5379602;26;20077;-76
2024/05/04 01:45:04;;;;;;;8.35;6.18;;;7.50;99.90;;;;;;5350522;26;20000;-76
2024/05/04 01:47:31;;;;;;;9.70;6.38;;;7.50;99.90;;;;;;5380997;26;20000;-77
2024/05/04 01:49:58;;;;;;;7.43;5.70;;;7.40;99.90;;;;;;5381167;26;20460;-76
2024/05/04 01:52:25;;;;;;;10.00;7.03;;;7.30;99.90;;;;;;5379250;26;20350;-77
2024/05/04 01:54:52;;;;;;;7.70;6.22;;;7.30;99.90;;;;;;5378590;26;20074;-76
2024/05/04 01:57:22;;;;;;;10.32;6.38;;;7.30;99.90;;;;;;5379422;26;20003;-76
2024/05/04 01:59:49;;;;;;;13.43;7.05;;;7.30;99.90;;;;;;5381399;26;20044;-76
2024/05/04 02:02:16;;;;;;;9.25;6.63;;;7.40;99.90;;;;;;5379396;26;20456;-76
2024/05/04 02:04:43;;;;;;;10.02;6.95;;;7.40;99.90;;;;;;5381398;26;20042;-77
2024/05/04 02:07:11;;;;;;;7.70;6.40;;;7.30;99.90;;;;;;5350630;26;20002;-77
2024/05/04 02:09:38;;;;;;;7.25;5.65;;;7.40;99.90;;;;;;5379570;26;20016;-76
2024/05/04 02:12:05;;;;;;;9.88;6.32;;;7.40;99.90;;;;;;5380698;26;20000;-77
2024/05/04 02:14:32;;;;;;;10.30;6.10;;;7.40;99.90;;;;;;5378806;26;20000;-76
2024/05/04 02:16:59;;;;;;;12.82;8.88;;;7.40;99.90;;;;;;5380822;26;20180;-77
2024/05/04 02:19:26;;;;;;;11.35;7.25;;;7.50;99.90;;;;;;5378836;26;20354;-77
2024/05/04 02:21:53;;;;;;;11.65;7.68;;;7.50;99.90;;;;;;5380584;26;20407;-77
2024/05/04 02:24:20;;;;;;;12.55;8.40;;;7.50;99.90;;;;;;5349683;26;20000;-76
2024/05/04 02:26:47;;;;;;;12.43;7.53;;;7.60;99.90;;;;;;5378843;26;20008;-77
2024/05/04 02:29:14;;;;;;;13.40;7.35;;;7.60;99.90;;;;;;5378862;26;20011;-77
2024/05/04 02:31:41;;;;;;;13.35;7.78;;;7.70;99.90;;;;;;5349966;26;20011;-76
2024/05/04 02:34:09;;;;;;;13.40;8.63;;;7.70;99.90;;;;;;5408530;26;19996;-77
2024/05/04 02:36:36;;;;;;;10.57;6.82;;;7.60;99.90;;;;;;5380204;26;20070;-77
2024/05/04 02:39:03;;;;;;;12.10;7.97;;;7.60;99.90;;;;;;5378810;26;19996;-77
2024/05/04 02:41:30;;;;;;;12.75;8.75;;;7.70;99.90;;;;;;5378656;26;20000;-76
2024/05/04 02:43:57;;;;;;;11.30;7.65;;;7.70;99.90;;;;;;5378687;26;20069;-77
2024/05/04 02:46:24;;;;;;;11.40;8.73;;;7.80;99.90;;;;;;5378473;26;20008;-76
2024/05/04 02:48:52;;;;;;;13.65;8.02;;;8.00;99.90;;;;;;5378572;26;20360;-77
2024/05/04 02:51:19;;;;;;;10.07;8.25;;;7.90;99.90;;;;;;5349128;26;20077;-77
2024/05/04 02:53:46;;;;;;;13.65;7.97;;;8.00;99.90;;;;;;5380068;26;20000;-77
2024/05/04 02:56:13;;;;;;;13.55;8.48;;;7.90;99.90;;;;;;5380088;26;20016;-77
2024/05/04 02:58:40;;;;;;;9.63;7.97;;;7.90;99.90;;;;;;5349200;26;20429;-77
2024/05/04 03:01:13;;;;;;;12.40;7.75;;;7.80;99.90;;;;;;5376634;26;20462;-76
2024/05/04 03:03:41;;;;;;;12.23;9.38;;;7.80;99.90;;;;;;5377897;26;20010;-77
2024/05/04 03:06:08;;;;;;;13.93;8.30;;;8.00;99.90;;;;;;5407617;26;20000;-76
2024/05/04 03:08:34;;;;;;;10.35;8.10;;;7.80;99.90;;;;;;5383050;26;20000;-76
2024/05/04 03:11:02;;;;;;;7.50;5.28;;;7.70;99.90;;;;;;5352379;26;20000;-77
2024/05/04 03:13:30;;;;;;;17.58;9.45;;;7.70;99.90;;;;;;5383126;26;20003;-77
2024/05/04 03:16:00;;;;;;;14.30;9.65;;;7.70;99.90;;;;;;5383479;26;20011;-76
2024/05/04 03:18:29;;;;;;;14.88;9.40;;;7.80;99.90;;;;;;5381616;26;20012;-77
2024/05/04 03:20:58;;;;;;;13.15;9.40;;;7.70;99.90;;;;;;5324981;26;20074;-77
2024/05/04 03:23:25;;;;;;;13.10;8.98;;;7.80;99.90;;;;;;5381598;26;20062;-76
2024/05/04 03:25:52;;;;;;;12.18;9.10;;;7.80;99.90;;;;;;5381849;26;19996;-77
2024/05/04 03:28:20;;;;;;;14.43;10.20;;;7.80;99.90;;;;;;5383531;26;20008;-76
2024/05/04 03:30:47;;;;;;;13.35;10.88;;;7.80;99.90;;;;;;5382972;26;20012;-76
2024/05/04 03:33:14;;;;;;;13.55;8.43;;;7.80;99.90;;;;;;5381499;26;20000;-76
2024/05/04 03:35:48;;;;;;;14.48;10.18;;;8.00;99.90;;;;;;5382922;26;20575;-77
2024/05/04 03:38:15;;;;;;;15.63;10.38;;;7.80;99.90;;;;;;5383068;26;20000;-77
2024/05/04 03:40:42;;;;;;;18.02;9.38;;;7.90;99.90;;;;;;5380999;26;20001;-77
2024/05/04 03:43:09;;;;;;;10.07;6.60;;;7.90;99.90;;;;;;5382968;26;20337;-77
2024/05/04 03:45:36;;;;;;;16.95;12.02;;;8.10;99.90;;;;;;5380945;26;20015;-76
2024/05/04 03:48:03;;;;;;;16.70;12.00;;;8.00;99.90;;;;;;5383054;26;20000;-77
2024/05/04 03:50:30;;;;;;;16.00;10.95;;;8.00;99.90;;;;;;5382640;26;20011;-77
2024/05/04 03:52:57;;;;;;;19.25;12.73;;;8.10;99.90;;;;;;5383006;26;19996;-76
2024/05/04 03:55:24;;;;;;;15.63;11.15;;;8.10;99.90;;;;;;5381152;26;19996;-76
2024/05/04 03:57:51;;;;;;;15.98;11.77;;;8.10;99.90;;;;;;5380871;26;20012;-77
2024/05/04 04:00:18;;;;;;;16.17;10.30;;;8.10;99.90;;;;;;5381056;26;20395;-77
2024/05/04 04:02:45;;;;;;;13.48;9.85;;;8.10;99.90;;;;;;5380738;26;20008;-77
2024/05/04 04:05:12;;;;;;;14.73;12.07;;;8.10;99.90;;;;;;5381133;26;19996;-77
2024/05/04 04:07:44;;;;;;;7.63;6.25;;;8.10;99.90;;;;;;5382694;26;20469;-76
2024/05/04 04:10:11;;;;;;;15.15;11.25;;;8.10;99.90;;;;;;5351895;26;20011;-76
2024/05/04 04:12:39;;;;;;;14.85;10.32;;;8.10;99.90;;;;;;5380550;26;20006;-77
2024/05/04 04:15:06;;;;;;;19.60;12.88;;;8.20;99.90;;;;;;5380623;26;19996;-77
2024/05/04 04:17:34;;;;;;;16.83;10.55;;;8.20;99.90;;;;;;5350606;26;20000;-77
2024/05/04 04:20:05;;;;;;;14.35;8.98;;;8.20;99.90;;;;;;5382092;26;20522;-76
2024/05/04 04:22:33;;;;;;;;;;;8.20;99.90;;;;;;5410544;26;20466;-77
2024/05/04 04:25:01;;;;;;;14.18;8.85;;;8.30;99.90;;;;;;5380588;26;20240;-77
2024/05/04 04:27:28;;;;;;;14.48;10.27;;;8.30;99.90;;;;;;5382453;26;20015;-76
2024/05/04 04:29:55;;;;;;;10.60;8.63;;;8.30;99.90;;;;;;5381864;26;20000;-77
2024/05/04 04:32:22;;;;;;;8.65;7.68;;;8.30;99.90;;;;;;5382128;26;20065;-77
2024/05/04 04:34:49;;;;;;;18.98;13.25;;;8.40;99.90;;;;;;5351308;26;20408;-76
2024/05/04 04:37:16;;;;;;;18.80;12.45;;;8.40;99.90;;;;;;5382039;26;20302;-77
2024/05/04 04:39:43;;;;;;;14.15;10.13;;;8.40;99.90;;;;;;5381785;26;20032;-77
2024/05/04 04:42:10;;;;;;;16.83;11.95;;;8.50;99.90;;;;;;5382386;26;20069;-77
2024/05/04 04:44:37;;;;;;;18.65;11.40;;;8.50;99.90;;;;;;5380509;26;20028;-77
2024/05/04 04:47:04;;;;;;;20.23;13.05;;;8.50;99.90;;;;;;5382029;26;20000;-76
2024/05/04 04:49:31;;;;;;;15.60;11.80;;;8.60;99.90;;;;;;5409889;26;19996;-77
2024/05/04 04:51:58;;;;;;;14.68;11.23;;;8.60;99.90;;;;;;5350995;26;19997;-77
2024/05/04 04:54:25;;;;;;;21.15;12.82;;;8.60;99.90;;;;;;5380278;26;20507;-76
2024/05/04 04:56:52;;;;;;;15.85;11.25;;;8.60;99.90;;;;;;5381419;26;20001;-76
2024/05/04 04:59:19;;;;;;;23.80;13.15;;;8.60;99.90;;;;;;5380062;26;20000;-77
2024/05/04 05:01:46;;;;;;;19.63;12.63;;;8.70;99.90;;;;;;5358726;26;20087;-77
2024/05/04 05:04:14;;;;;;;18.20;13.00;;;8.70;99.90;;;;;;5346517;26;20078;-76
2024/05/04 05:06:41;;;;;;;20.48;13.63;;;8.80;99.90;;;;;;5343042;26;20338;-77
2024/05/04 05:09:08;;;;;;;8.45;7.15;;;8.90;99.90;;;;;;5344969;26;20001;-77
2024/05/04 05:11:36;;;;;;;12.02;8.20;;;8.90;99.90;;;;;;5344412;26;20016;-75
2024/05/04 05:14:03;;;;;;;12.95;8.75;;;9.00;99.90;;;;;;5346652;26;20001;-75
2024/05/04 05:16:30;;;;;;;16.35;10.40;;;9.10;99.90;;;;;;5346643;26;20020;-74
2024/05/04 05:18:57;;;;;;;18.00;13.60;;;9.20;99.90;;;;;;5346439;26;20001;-75
2024/05/04 05:21:25;;;;;;;14.30;9.43;;;9.20;99.90;;;;;;5346725;26;20025;-74
2024/05/04 05:23:52;;;;;;;19.75;15.45;;;9.40;99.90;;;;;;5344785;26;19997;-75
2024/05/04 05:26:19;;;;;;;8.98;7.15;;;9.60;99.90;;;;;;5346581;26;20001;-75
2024/05/04 05:28:46;;;;;;;16.17;12.80;;;9.90;99.90;;;;;;5346512;26;20008;-75
2024/05/04 05:31:13;;;;;;;16.23;12.70;;;10.30;99.90;;;;;;5343682;26;20049;-75
2024/05/04 05:33:40;;;;;;;15.30;11.70;;;10.80;99.90;;;;;;5344819;26;20132;-75
2024/05/04 05:36:07;;;;;;;14.82;10.13;;;11.30;99.90;;;;;;5373445;26;20001;-75
2024/05/04 05:38:34;;;;;;;18.38;11.98;;;11.60;99.90;;;;;;5346377;26;20005;-75
2024/05/04 05:41:01;;;;;;;11.57;9.45;;;11.90;99.90;;;;;;5346084;26;20086;-75
2024/05/04 05:43:28;;;;;;;10.32;8.68;;;12.10;99.90;;;;;;5346187;26;20005;-75
2024/05/04 05:45:55;;;;;;;11.73;8.57;;;12.30;99.90;;;;;;5345836;26;20020;-75
2024/05/04 05:48:22;;;;;;;17.95;11.57;;;12.40;99.90;;;;;;5344287;26;20001;-75
2024/05/04 05:50:49;;;;;;;9.50;7.85;;;12.80;99.90;;;;;;5344218;26;20453;-75
2024/05/04 05:53:16;;;;;;;13.75;10.68;;;13.20;99.90;;;;;;5346123;26;20012;-75
2024/05/04 05:55:43;;;;;;;12.02;8.63;;;13.80;99.90;;;;;;5343761;26;20001;-75
2024/05/04 05:58:11;;;;;;;10.40;8.13;;;14.20;99.90;;;;;;5346065;26;20009;-76
2024/05/04 06:00:38;;;;;;;11.55;8.85;;;14.40;99.90;;;;;;5344693;26;20020;-76
2024/05/04 06:03:10;;;;;;;18.92;9.15;;;14.70;99.90;;;;;;5346444;26;20009;-75
2024/05/04 06:05:37;;;;;;;14.85;10.68;;;14.90;99.90;;;;;;5345926;26;20077;-76
2024/05/04 06:08:05;;;;;;;10.30;7.75;;;15.20;99.90;;;;;;5344280;26;20284;-76
2024/05/04 06:10:32;;;;;;;15.63;9.38;;;15.40;99.90;;;;;;5344093;26;19997;-76
2024/05/04 06:12:59;;;;;;;12.50;11.00;;;15.70;99.90;;;;;;5370814;26;20446;-76
2024/05/04 06:15:26;;;;;;;8.50;7.25;;;15.90;99.50;;;;;;5376993;26;20015;-75
2024/05/04 06:17:54;;;;;;;7.82;5.68;;;16.10;98.50;;;;;;5406075;26;20001;-75
2024/05/04 06:20:23;;;;;;;11.13;9.55;;;16.20;97.70;;;;;;5380536;26;20012;-76
2024/05/04 06:22:49;;;;;;;6.25;5.65;;;16.50;97.80;;;;;;5349603;26;20008;-76
2024/05/04 06:25:17;;;;;;;10.55;9.48;;;17.00;97.10;;;;;;5380389;26;20333;-76
2024/05/04 06:27:44;;;;;;;12.32;9.77;;;17.40;96.50;;;;;;5378717;26;20000;-76
2024/05/04 06:30:12;;;;;;;10.95;8.63;;;17.80;96.20;;;;;;5380102;26;20001;-76
2024/05/04 06:32:39;;;;;;;10.20;9.20;;;18.30;95.10;;;;;;5380378;26;20020;-76
2024/05/04 06:35:06;;;;;;;11.73;9.32;;;18.70;93.50;;;;;;5378270;26;20001;-76
2024/05/04 06:37:33;;;;;;;11.10;8.55;;;18.70;91.70;;;;;;5380623;26;19996;-76
2024/05/04 06:40:00;;;;;;;8.98;7.05;;;18.90;92.10;;;;;;5378576;26;20388;-76
2024/05/04 06:42:27;;;;;;;9.32;8.43;;;19.20;91.60;;;;;;5380981;26;20032;-76
2024/05/04 06:44:54;;;;;;;8.65;7.63;;;19.30;90.60;;;;;;5381742;26;20007;-76
2024/05/04 06:47:21;;;;;;;11.13;8.48;;;19.40;90.40;;;;;;5382326;26;20070;-76
2024/05/04 06:49:48;;;;;;;7.75;6.35;;;19.50;89.40;;;;;;5382190;26;20399;-77
2024/05/04 06:52:15;;;;;;;9.85;7.90;;;19.40;88.70;;;;;;5381690;26;20007;-76
2024/05/04 06:54:42;;;;;;;4.78;4.32;;;19.40;89.70;;;;;;5381640;26;20083;-77
2024/05/04 06:57:10;;;;;;;8.77;7.50;;;19.50;87.10;;;;;;5383242;26;20078;-77
2024/05/04 06:59:37;;;;;;;8.15;7.30;;;19.50;87.50;;;;;;5381815;26;20011;-77
2024/05/04 07:02:04;;;;;;;9.80;6.47;;;19.40;87.50;;;;;;5381422;26;20059;-79
2024/05/04 07:04:31;;;;;;;10.10;6.72;;;19.50;87.00;;;;;;5380636;26;20018;-80
2024/05/04 07:06:59;;;;;;;8.95;7.75;;;19.70;87.00;;;;;;5345342;26;20001;-81
2024/05/04 07:09:26;;;;;;;11.93;7.45;;;19.90;86.70;;;;;;5408715;26;20001;-81
2024/05/04 07:11:53;;;;;;;9.88;5.68;;;20.40;87.30;;;;;;5381723;26;20329;-80
2024/05/04 07:14:20;;;;;;;5.93;4.93;;;20.80;83.60;;;;;;5381750;26;20000;-81
2024/05/04 07:16:47;;;;;;;6.95;5.65;;;20.90;82.80;;;;;;5382286;26;20007;-81
2024/05/04 07:19:14;;;;;;;6.07;4.43;;;20.80;83.20;;;;;;5381841;26;20029;-80
2024/05/04 07:21:41;;;;;;;6.25;5.57;;;20.80;82.40;;;;;;5353112;26;20302;-80
2024/05/04 07:24:08;;;;;;;6.32;5.75;;;21.00;83.20;;;;;;5352556;26;19996;-80
2024/05/04 07:26:39;;;;;;;6.35;5.75;;;21.10;81.60;;;;;;5324243;26;20069;-80
2024/05/04 07:29:06;;;;;;;9.57;7.63;;;21.00;81.40;;;;;;5383532;26;20000;-79
2024/05/04 07:31:33;;;;;;;6.68;5.03;;;21.40;81.40;;;;;;5381911;26;19996;-80
2024/05/04 07:34:00;;;;;;;8.02;6.53;;;21.40;79.40;;;;;;5381285;26;20000;-80
2024/05/04 07:36:27;;;;;;;7.85;5.40;;;21.10;79.90;;;;;;5383177;26;20000;-79
2024/05/04 07:38:54;;;;;;;8.13;6.13;;;21.20;80.30;;;;;;5381829;26;20000;-80
2024/05/04 07:41:21;;;;;;;7.63;6.28;;;21.40;80.00;;;;;;5381328;26;20433;-80
2024/05/04 07:43:49;;;;;;;7.53;6.22;;;21.40;79.00;;;;;;5383145;26;20015;-79
2024/05/04 07:46:16;;;;;;;10.10;6.10;;;21.40;79.00;;;;;;5352106;26;20124;-79
2024/05/04 07:48:43;;;;;;;8.55;6.78;;;21.30;78.90;;;;;;5352317;26;20077;-80
2024/05/04 07:51:13;;;;;;;10.07;6.45;;;21.30;79.10;;;;;;5382791;26;20000;-79
2024/05/04 07:53:41;;;;;;;4.90;4.40;;;21.10;78.10;;;;;;5380197;26;20000;-78
2024/05/04 07:56:08;;;;;;;6.50;4.45;;;21.20;78.50;;;;;;5376537;26;20008;-78
2024/05/04 07:58:35;;;;;;;8.23;5.40;;;21.40;77.20;;;;;;5363673;26;20001;-78
2024/05/04 08:01:04;;;;;;;7.93;5.47;;;21.50;77.00;;;;;;5376388;26;20446;-78
2024/05/04 08:03:31;;;;;;;8.30;6.38;;;21.50;76.80;;;;;;5348781;26;20016;-79
2024/05/04 08:05:58;;;;;;;6.60;5.93;;;21.50;78.00;;;;;;5380234;26;20004;-78
2024/05/04 08:08:25;;;;;;;5.63;5.10;;;21.60;76.70;;;;;;5382433;26;20011;-79
2024/05/04 08:10:52;;;;;;;6.60;4.57;;;21.70;77.40;;;;;;5382199;26;20070;-79
2024/05/04 08:13:19;;;;;;;9.35;5.90;;;22.00;77.10;;;;;;5350103;26;20012;-79
2024/05/04 08:15:46;;;;;;;5.68;5.13;;;22.10;76.00;;;;;;5380410;26;20000;-79
2024/05/04 08:18:13;;;;;;;7.07;6.13;;;22.30;75.90;;;;;;5352447;26;20023;-79
2024/05/04 08:20:41;;;;;;;5.28;4.45;;;22.40;75.40;;;;;;5353115;26;20003;-78
2024/05/04 08:23:08;;;;;;;9.07;5.63;;;22.50;74.50;;;;;;5381325;26;20015;-78
2024/05/04 08:25:35;;;;;;;6.32;4.72;;;22.10;75.30;;;;;;5352965;26;20011;-74
2024/05/04 08:28:02;;;;;;;8.65;5.30;;;21.90;76.00;;;;;;5352199;26;20000;-76
2024/05/04 08:30:32;;;;;;;4.95;4.18;;;21.40;76.00;;;;;;5381382;26;20008;-80
2024/05/04 08:32:59;;;;;;;0.13;0.13;;;21.00;76.70;;;;;;5382823;26;19996;-76
2024/05/04 08:35:26;;;;;;;0.10;0.10;;;20.70;78.70;;;;;;5380700;26;20338;-76
2024/05/04 08:37:54;;;;;;;0.10;0.10;;;20.20;78.80;;;;;;5352600;26;20433;-77
2024/05/04 08:40:22;;;;;;;0.22;0.22;;;19.80;81.90;;;;;;5382889;26;20008;-78
2024/05/04 08:42:51;;;;;;;0.00;0.00;;;19.40;84.70;;;;;;5381517;26;20000;-80
2024/05/04 08:45:18;;;;;;;0.10;0.10;;;18.90;86.20;;;;;;5381141;26;20000;-78
2024/05/04 08:47:48;;;;;;;0.60;0.60;;;18.50;90.80;;;;;;5383134;26;19996;-81
2024/05/04 08:50:16;;;;;;;0.05;0.05;;;18.30;91.30;;;;;;5382964;26;19996;-79
2024/05/04 08:52:43;;;;;;;0.28;0.25;;;18.20;92.10;;;;;;5352499;26;19993;-81
2024/05/04 08:55:10;;;;;;;0.00;0.00;;;18.30;92.50;;;;;;5381272;26;20437;-81
2024/05/04 08:57:38;;;;;;;0.25;0.25;;;18.70;93.60;;;;;;5381183;26;20011;-81
2024/05/04 09:00:06;;;;;;;0.55;0.55;;;19.40;93.10;;;;;;5382713;26;19996;-82
2024/05/04 09:02:35;;;;;;;0.00;0.00;;;19.90;93.40;;;;;;5324094;26;20000;-81
2024/05/04 09:05:02;;;;;;;0.00;0.00;;;20.50;92.50;;;;;;5380230;26;20023;-81
2024/05/04 09:07:29;;;;;;;0.22;0.22;;;20.90;91.40;;;;;;5382428;26;20329;-80
2024/05/04 09:09:57;;;;;;;0.30;0.30;;;21.20;92.10;;;;;;5380658;26;20008;-78
2024/05/04 09:12:32;;;;;;;0.32;0.32;;;21.60;90.40;;;;;;5380280;26;20008;-78
2024/05/04 09:14:59;;;;;;;0.10;0.10;;;22.00;88.90;;;;;;5375235;26;20019;-78
2024/05/04 09:17:26;;;;;;;0.20;0.20;;;22.20;89.80;;;;;;5374556;26;20011;-79
2024/05/04 09:19:53;;;;;;;0.47;0.47;;;22.50;86.50;;;;;;5381910;26;20041;-78
2024/05/04 09:22:21;;;;;;;0.00;0.00;;;22.80;90.10;;;;;;5382104;26;20000;-79
2024/05/04 09:24:48;;;;;;;0.00;0.00;;;23.20;89.40;;;;;;5351506;26;20032;-80
2024/05/04 09:27:15;;;;;;;0.10;0.10;;;23.60;86.10;;;;;;5374060;26;20399;-79
2024/05/04 09:29:42;;;;;;;0.03;0.03;;;23.80;84.20;;;;;;5346872;26;20443;-79
2024/05/04 09:32:11;;;;;;;0.20;0.20;;;23.50;87.00;;;;;;5346705;26;20028;-79
2024/05/04 09:34:40;;;;;;;0.30;0.30;;;23.10;82.70;;;;;;5344571;26;20287;-80
2024/05/04 09:37:15;;;;;;;0.00;0.00;;;23.20;85.40;;;;;;5344921;26;20012;-80
2024/05/04 09:39:44;;;;;;;0.03;0.03;;;23.60;86.50;;;;;;5346638;26;20401;-80
2024/05/04 09:42:12;;;;;;;0.10;0.10;;;24.30;85.50;;;;;;5346466;26;20001;-79
2024/05/04 09:44:40;;;;;;;0.55;0.15;;;24.60;82.30;;;;;;5346272;26;20000;-81
2024/05/04 09:47:10;;;;;;;0.15;0.15;;;24.60;84.80;;;;;;5344838;26;20472;-80
2024/05/04 09:49:40;;;;;;;0.55;0.55;;;24.60;79.70;;;;;;5344422;26;20001;-80
2024/05/04 09:52:09;;;;;;;0.00;0.00;;;24.40;77.20;;;;;;5344550;26;20001;-79
2024/05/04 09:54:37;;;;;;;0.08;0.08;;;24.10;78.60;;;;;;5373300;26;20000;-80
2024/05/04 09:57:13;;;;;;;0.05;0.03;;;23.80;76.60;;;;;;5344733;26;20446;-80
2024/05/04 09:59:43;;;;;;;;;;;23.50;78.90;;;;;;5316266;26;20008;-80
2024/05/04 10:02:14;;;;;;;0.00;0.00;;;23.20;73.30;;;;;;5344635;26;19938;-80
2024/05/04 10:04:43;;;;;;;0.25;0.25;;;22.80;74.00;;;;;;5315702;26;20074;-80
2024/05/04 10:07:12;;;;;;;0.73;0.57;;;23.00;74.80;;;;;;5344731;26;20028;-80
2024/05/04 10:09:53;;;;;;;0.22;0.22;;;23.20;74.30;;;;;;5344672;26;20442;-80
2024/05/04 10:12:20;;;;;;;0.20;0.20;;;23.80;71.50;;;;;;5371488;26;20005;-80
2024/05/04 10:14:47;;;;;;;0.13;0.13;;;24.40;71.40;;;;;;5373206;26;20001;-80
2024/05/04 10:17:28;;;;;;;0.30;0.25;;;24.70;71.60;;;;;;5343065;26;20001;-80
2024/05/04 10:20:24;;;;;;;2.97;1.33;;;25.20;70.30;;;;;;5344070;26;20016;-80
2024/05/04 10:22:59;;;;;;;1.30;0.93;;;25.80;63.40;;;;;;5342412;26;20005;-80
2024/05/04 10:25:27;;;;;;;1.42;1.05;;;25.90;66.00;;;;;;5343640;26;20428;-80
2024/05/04 10:27:54;;;;;;;1.30;1.20;;;26.20;64.50;;;;;;5315335;26;20009;-80
2024/05/04 10:30:21;;;;;;;1.45;1.10;;;26.40;60.10;;;;;;5372639;26;20354;-80
2024/05/04 10:32:48;;;;;;;6.43;1.70;;;25.90;60.20;;;;;;5345672;26;20009;-80
2024/05/04 10:35:15;;;;;;;1.63;0.93;;;24.90;61.10;;;;;;5344168;26;20005;-80
2024/05/04 10:37:48;;;;;;;2.10;1.20;;;24.20;63.00;;;;;;5343718;26;20004;-80
2024/05/04 10:40:17;;;;;;;1.23;1.10;;;23.90;62.00;;;;;;5345522;26;20335;-80
2024/05/04 10:42:44;;;;;;;0.80;0.80;;;24.00;61.90;;;;;;5345274;26;20012;-80
2024/05/04 10:45:11;;;;;;;1.20;0.80;;;24.50;62.10;;;;;;5343763;26;20012;-80
2024/05/04 10:47:38;;;;;;;2.78;1.73;;;24.90;60.70;;;;;;5372509;26;19997;-80
2024/05/04 10:50:06;;;;;;;1.98;1.38;;;24.40;61.10;;;;;;5345209;26;20013;-80
2024/05/04 10:52:39;;;;;;;3.40;0.80;;;24.60;61.90;;;;;;5344978;26;20016;-80
2024/05/04 10:55:06;;;;;;;2.35;0.80;;;25.10;60.90;;;;;;5314844;26;20045;-81
2024/05/04 10:57:34;;;;;;;3.10;1.63;;;25.20;59.80;;;;;;5372008;26;20009;-80
2024/05/04 11:00:02;;;;;;;1.80;0.73;;;24.90;59.50;;;;;;5343547;26;20512;-80
2024/05/04 11:02:31;;;;;;;2.33;1.60;;;25.00;59.20;;;;;;5345053;26;20446;-81
2024/05/04 11:04:59;;;;;;;1.17;0.75;;;25.40;57.30;;;;;;5343507;26;20028;-81
2024/05/04 11:07:27;;;;;;;3.70;1.00;;;25.60;55.80;;;;;;5343147;26;20343;-80
2024/05/04 11:09:57;;;;;;;1.38;0.75;;;25.70;57.30;;;;;;5343183;26;20385;-81
2024/05/04 11:12:25;;;;;;;6.00;1.60;;;25.80;58.00;;;;;;5314687;26;19997;-80
2024/05/04 11:14:58;;;;;;;1.13;1.02;;;26.00;57.40;;;;;;5343558;26;19997;-81
2024/05/04 11:17:25;;;;;;;1.58;0.88;;;26.10;57.00;;;;;;5343516;26;19997;-80
2024/05/04 11:19:54;;;;;;;0.75;0.70;;;25.80;57.00;;;;;;5343286;26;20001;-80
2024/05/04 11:22:21;;;;;;;1.63;1.10;;;25.50;57.20;;;;;;5372144;26;20083;-80
2024/05/04 11:24:48;;;;;;;1.15;0.90;;;24.90;56.60;;;;;;5372137;26;20102;-80
2024/05/04 11:27:15;;;;;;;3.53;1.25;;;24.30;58.30;;;;;;5343913;26;20071;-80
2024/05/04 11:29:42;;;;;;;2.35;1.13;;;23.90;59.10;;;;;;5346143;26;20002;-80
2024/05/04 11:32:09;;;;;;;2.25;0.82;;;23.70;58.40;;;;;;5348362;26;20001;-80
2024/05/04 11:34:36;;;;;;;0.70;0.52;;;23.60;59.20;;;;;;5347883;26;20037;-80
2024/05/04 11:37:03;;;;;;;2.08;0.85;;;23.70;60.00;;;;;;5375259;26;20001;-80
2024/05/04 11:39:30;;;;;;;2.00;1.15;;;23.90;58.50;;;;;;5346384;26;20020;-80
2024/05/04 11:41:58;;;;;;;3.22;1.30;;;23.90;59.30;;;;;;5346586;26;20012;-81
2024/05/04 11:44:25;;;;;;;1.15;0.98;;;24.10;59.40;;;;;;5346468;26;20401;-80
2024/05/04 11:46:52;;;;;;;2.53;1.02;;;24.00;59.20;;;;;;5347820;26;20012;-80
2024/05/04 11:49:19;;;;;;;2.53;1.38;;;23.80;59.20;;;;;;5347925;26;20013;-80
2024/05/04 11:51:46;;;;;;;3.22;1.30;;;23.50;59.60;;;;;;5346084;26;20312;-80
2024/05/04 11:54:13;;;;;;;2.70;1.30;;;23.00;59.70;;;;;;5346696;26;19997;-81
2024/05/04 11:56:40;;;;;;;1.95;1.02;;;22.60;60.10;;;;;;5347936;26;20076;-80
2024/05/04 11:59:07;;;;;;;1.75;1.50;;;22.40;60.90;;;;;;5346478;26;20453;-81
2024/05/04 12:01:34;;;;;;;1.00;0.80;;;22.30;60.90;;;;;;5345888;26;20435;-80
2024/05/04 12:04:01;;;;;;;2.80;1.45;;;22.20;61.50;;;;;;5348292;26;20071;-81
2024/05/04 12:06:29;;;;;;;4.22;1.55;;;22.00;61.40;;;;;;5346344;26;20021;-81
2024/05/04 12:08:56;;;;;;;1.58;1.05;;;21.80;62.10;;;;;;5374572;26;19997;-81
2024/05/04 12:11:23;;;;;;;1.27;0.85;;;21.60;61.40;;;;;;5374974;26;20013;-80
2024/05/04 12:13:53;;;;;;;7.00;1.40;;;21.60;61.70;;;;;;5317050;26;20478;-80
2024/05/04 12:16:20;;;;;;;1.35;1.15;;;21.70;62.00;;;;;;5347555;26;20001;-80
2024/05/04 12:18:47;;;;;;;1.73;1.13;;;21.80;61.70;;;;;;5345534;26;20015;-81
2024/05/04 12:21:15;;;;;;;2.60;1.50;;;22.00;61.80;;;;;;5345936;26;20474;-80
2024/05/04 12:23:42;;;;;;;2.40;1.58;;;22.50;61.90;;;;;;5345584;26;20013;-81
2024/05/04 12:26:09;;;;;;;3.42;1.20;;;23.00;59.90;;;;;;5345778;26;20001;-80
2024/05/04 12:28:36;;;;;;;4.35;1.88;;;23.30;60.40;;;;;;5347388;26;20015;-80
2024/05/04 12:31:04;;;;;;;2.17;1.45;;;23.50;59.60;;;;;;5374743;26;20351;-81
2024/05/04 12:33:31;;;;;;;0.65;0.52;;;23.50;59.70;;;;;;5345557;26;19997;-80
2024/05/04 12:35:58;;;;;;;2.42;1.38;;;23.70;59.30;;;;;;5345542;26;20004;-80
2024/05/04 12:38:25;;;;;;;1.48;1.27;;;23.70;58.30;;;;;;5316877;26;20456;-80
2024/05/04 12:40:52;;;;;;;2.08;1.98;;;23.50;57.90;;;;;;5374690;26;20007;-80
2024/05/04 12:43:19;;;;;;;1.75;1.35;;;23.00;58.10;;;;;;5345657;26;20007;-80
2024/05/04 12:45:46;;;;;;;4.97;1.80;;;22.80;58.80;;;;;;5374581;26;20426;-80
2024/05/04 12:48:14;;;;;;;1.63;1.17;;;22.60;59.40;;;;;;5316676;26;20077;-80